sensor_id;sensor_type;location;lat;lon;timestamp;temperature;humidity
9393;DHT22;4736;52.508;13.422;2023-01-10T00:01:06;7.50;1.00
9393;DHT22;4736;52.508;13.422;2023-01-10T00:04:09;7.30;1.00
9393;DHT22;4736;52.508;13.422;2023-01-10T00:07:13;7.50;1.00
9393;DHT22;4736;52.508;13.422;2023-01-10T00:10:17;7.30;1.00
9393;DHT22;4736;52.508;13.422;2023-01-10T00:13:20;7.30;1.00
9393;DHT22;4736;52.508;13.422;2023-01-10T00:16:25;7.20;1.00
9393;DHT22;4736;52.508;13.422;2023-01-10T00:19:28;7.30;1.00
9393;DHT22;4736;52.508;13.422;2023-01-10T00:22:32;7.20;1.00
9393;DHT22;4736;52.508;13.422;2023-01-10T00:25:35;7.30;1.00
9393;DHT22;4736;52.508;13.422;2023-01-10T00:28:39;7.40;1.00
9393;DHT22;4736;52.508;13.422;2023-01-10T00:31:44;7.20;1.00
9393;DHT22;4736;52.508;13.422;2023-01-10T00:34:47;7.20;1.00
9393;DHT22;4736;52.508;13.422;2023-01-10T00:37:51;7.20;1.00
9393;DHT22;4736;52.508;13.422;2023-01-10T00:40:58;7.40;1.00
9393;DHT22;4736;52.508;13.422;2023-01-10T00:44:01;7.20;1.00
9393;DHT22;4736;52.508;13.422;2023-01-10T00:47:04;7.10;1.00
9393;DHT22;4736;52.508;13.422;2023-01-10T00:50:08;7.10;1.00
9393;DHT22;4736;52.508;13.422;2023-01-10T00:53:12;7.20;1.00
9393;DHT22;4736;52.508;13.422;2023-01-10T00:56:15;7.20;1.00
9393;DHT22;4736;52.508;13.422;2023-01-10T00:59:19;7.20;1.00
9393;DHT22;4736;52.508;13.422;2023-01-10T01:02:23;7.20;1.00
9393;DHT22;4736;52.508;13.422;2023-01-10T01:05:26;7.20;1.00
9393;DHT22;4736;52.508;13.422;2023-01-10T01:08:31;7.40;1.00
9393;DHT22;4736;52.508;13.422;2023-01-10T01:11:34;7.20;1.00
9393;DHT22;4736;52.508;13.422;2023-01-10T01:14:39;7.40;1.00
9393;DHT22;4736;52.508;13.422;2023-01-10T01:17:42;7.20;1.00
9393;DHT22;4736;52.508;13.422;2023-01-10T01:20:45;7.40;1.00
9393;DHT22;4736;52.508;13.422;2023-01-10T01:24:03;7.20;1.00
9393;DHT22;4736;52.508;13.422;2023-01-10T01:27:06;7.40;1.00
9393;DHT22;4736;52.508;13.422;2023-01-10T01:30:10;7.40;1.00
9393;DHT22;4736;52.508;13.422;2023-01-10T01:33:13;7.20;1.00
9393;DHT22;4736;52.508;13.422;2023-01-10T01:36:16;6.90;1.00
9393;DHT22;4736;52.508;13.422;2023-01-10T01:39:22;7.00;1.00
9393;DHT22;4736;52.508;13.422;2023-01-10T01:42:27;7.20;1.00
9393;DHT22;4736;52.508;13.422;2023-01-10T01:45:45;7.10;1.00
9393;DHT22;4736;52.508;13.422;2023-01-10T01:48:49;7.10;1.00
9393;DHT22;4736;52.508;13.422;2023-01-10T01:51:58;7.30;1.00
9393;DHT22;4736;52.508;13.422;2023-01-10T01:55:05;7.20;1.00
9393;DHT22;4736;52.508;13.422;2023-01-10T01:58:30;6.90;1.00
9393;DHT22;4736;52.508;13.422;2023-01-10T02:01:37;6.90;1.00
9393;DHT22;4736;52.508;13.422;2023-01-10T02:04:51;7.10;1.00
9393;DHT22;4736;52.508;13.422;2023-01-10T02:07:56;6.80;1.00
9393;DHT22;4736;52.508;13.422;2023-01-10T02:11:05;6.80;1.00
9393;DHT22;4736;52.508;13.422;2023-01-10T02:14:11;6.80;1.00
9393;DHT22;4736;52.508;13.422;2023-01-10T02:17:15;6.90;1.00
9393;DHT22;4736;52.508;13.422;2023-01-10T02:20:20;6.50;1.00
9393;DHT22;4736;52.508;13.422;2023-01-10T02:27:24;6.70;1.00
9393;DHT22;4736;52.508;13.422;2023-01-10T02:30:46;6.90;1.00
9393;DHT22;4736;52.508;13.422;2023-01-10T02:34:00;6.60;1.00
9393;DHT22;4736;52.508;13.422;2023-01-10T02:37:21;6.90;1.00
9393;DHT22;4736;52.508;13.422;2023-01-10T02:40:31;6.80;1.00
9393;DHT22;4736;52.508;13.422;2023-01-10T02:43:38;6.60;1.00
9393;DHT22;4736;52.508;13.422;2023-01-10T02:46:44;6.90;1.00
9393;DHT22;4736;52.508;13.422;2023-01-10T02:49:50;6.50;1.00
9393;DHT22;4736;52.508;13.422;2023-01-10T02:52:54;6.70;1.00
9393;DHT22;4736;52.508;13.422;2023-01-10T03:00:13;6.70;1.00
9393;DHT22;4736;52.508;13.422;2023-01-10T03:03:26;6.70;1.00
9393;DHT22;4736;52.508;13.422;2023-01-10T03:06:42;6.70;1.00
9393;DHT22;4736;52.508;13.422;2023-01-10T03:09:52;7.00;1.00
9393;DHT22;4736;52.508;13.422;2023-01-10T03:13:00;6.80;1.00
9393;DHT22;4736;52.508;13.422;2023-01-10T03:16:06;6.90;1.00
9393;DHT22;4736;52.508;13.422;2023-01-10T03:19:12;6.80;1.00
9393;DHT22;4736;52.508;13.422;2023-01-10T03:22:18;6.80;1.00
9393;DHT22;4736;52.508;13.422;2023-01-10T03:25:25;6.90;1.00
9393;DHT22;4736;52.508;13.422;2023-01-10T03:28:32;6.70;1.00
9393;DHT22;4736;52.508;13.422;2023-01-10T03:31:41;6.90;1.00
9393;DHT22;4736;52.508;13.422;2023-01-10T03:34:46;6.70;1.00
9393;DHT22;4736;52.508;13.422;2023-01-10T03:37:54;7.00;1.00
9393;DHT22;4736;52.508;13.422;2023-01-10T03:41:02;6.90;1.00
9393;DHT22;4736;52.508;13.422;2023-01-10T03:44:13;6.70;1.00
9393;DHT22;4736;52.508;13.422;2023-01-10T03:47:39;7.00;1.00
9393;DHT22;4736;52.508;13.422;2023-01-10T03:50:43;6.70;1.00
9393;DHT22;4736;52.508;13.422;2023-01-10T03:53:48;6.60;1.00
9393;DHT22;4736;52.508;13.422;2023-01-10T03:56:52;6.80;1.00
9393;DHT22;4736;52.508;13.422;2023-01-10T03:59:56;6.70;1.00
9393;DHT22;4736;52.508;13.422;2023-01-10T04:02:59;6.80;1.00
9393;DHT22;4736;52.508;13.422;2023-01-10T04:06:04;7.00;1.00
9393;DHT22;4736;52.508;13.422;2023-01-10T04:09:10;6.90;1.00
9393;DHT22;4736;52.508;13.422;2023-01-10T04:12:13;6.90;1.00
9393;DHT22;4736;52.508;13.422;2023-01-10T04:15:16;6.70;1.00
9393;DHT22;4736;52.508;13.422;2023-01-10T04:18:20;7.00;1.00
9393;DHT22;4736;52.508;13.422;2023-01-10T04:21:23;7.10;1.00
9393;DHT22;4736;52.508;13.422;2023-01-10T04:24:27;6.90;1.00
9393;DHT22;4736;52.508;13.422;2023-01-10T04:27:30;6.70;1.00
9393;DHT22;4736;52.508;13.422;2023-01-10T04:30:33;7.00;1.00
9393;DHT22;4736;52.508;13.422;2023-01-10T04:33:36;6.60;1.00
9393;DHT22;4736;52.508;13.422;2023-01-10T04:36:49;7.00;1.00
9393;DHT22;4736;52.508;13.422;2023-01-10T04:39:53;7.10;1.00
9393;DHT22;4736;52.508;13.422;2023-01-10T04:42:56;6.90;1.00
9393;DHT22;4736;52.508;13.422;2023-01-10T04:45:59;6.80;1.00
9393;DHT22;4736;52.508;13.422;2023-01-10T04:49:02;6.80;1.00
9393;DHT22;4736;52.508;13.422;2023-01-10T04:52:06;7.00;1.00
9393;DHT22;4736;52.508;13.422;2023-01-10T04:55:11;6.60;1.00
9393;DHT22;4736;52.508;13.422;2023-01-10T04:58:14;6.70;1.00
9393;DHT22;4736;52.508;13.422;2023-01-10T05:01:19;6.80;1.00
9393;DHT22;4736;52.508;13.422;2023-01-10T05:04:22;6.70;1.00
9393;DHT22;4736;52.508;13.422;2023-01-10T05:07:25;6.90;1.00
9393;DHT22;4736;52.508;13.422;2023-01-10T05:10:30;6.70;1.00
9393;DHT22;4736;52.508;13.422;2023-01-10T05:13:33;6.70;1.00
9393;DHT22;4736;52.508;13.422;2023-01-10T05:16:36;6.80;1.00
9393;DHT22;4736;52.508;13.422;2023-01-10T05:19:42;6.70;1.00
9393;DHT22;4736;52.508;13.422;2023-01-10T05:22:45;7.00;1.00
9393;DHT22;4736;52.508;13.422;2023-01-10T05:25:51;7.10;1.00
9393;DHT22;4736;52.508;13.422;2023-01-10T05:28:54;6.90;1.00
9393;DHT22;4736;52.508;13.422;2023-01-10T05:31:57;6.80;1.00
9393;DHT22;4736;52.508;13.422;2023-01-10T05:35:00;6.80;1.00
9393;DHT22;4736;52.508;13.422;2023-01-10T05:38:03;6.90;1.00
9393;DHT22;4736;52.508;13.422;2023-01-10T05:41:08;6.80;1.00
9393;DHT22;4736;52.508;13.422;2023-01-10T05:44:11;6.80;1.00
9393;DHT22;4736;52.508;13.422;2023-01-10T05:47:17;7.00;1.00
9393;DHT22;4736;52.508;13.422;2023-01-10T05:50:20;6.80;1.00
9393;DHT22;4736;52.508;13.422;2023-01-10T05:53:23;6.90;1.00
9393;DHT22;4736;52.508;13.422;2023-01-10T05:56:27;6.80;1.00
9393;DHT22;4736;52.508;13.422;2023-01-10T05:59:30;7.00;1.00
9393;DHT22;4736;52.508;13.422;2023-01-10T06:02:34;6.70;1.00
9393;DHT22;4736;52.508;13.422;2023-01-10T06:05:37;6.80;1.00
9393;DHT22;4736;52.508;13.422;2023-01-10T06:08:40;6.90;1.00
9393;DHT22;4736;52.508;13.422;2023-01-10T06:11:44;6.90;1.00
9393;DHT22;4736;52.508;13.422;2023-01-10T06:14:47;6.90;1.00
9393;DHT22;4736;52.508;13.422;2023-01-10T06:17:50;6.80;1.00
9393;DHT22;4736;52.508;13.422;2023-01-10T06:20:53;6.90;1.00
9393;DHT22;4736;52.508;13.422;2023-01-10T06:23:56;6.90;1.00
9393;DHT22;4736;52.508;13.422;2023-01-10T06:27:01;7.00;1.00
9393;DHT22;4736;52.508;13.422;2023-01-10T06:30:05;6.80;1.00
9393;DHT22;4736;52.508;13.422;2023-01-10T06:33:09;7.00;1.00
9393;DHT22;4736;52.508;13.422;2023-01-10T06:36:12;6.80;1.00
9393;DHT22;4736;52.508;13.422;2023-01-10T06:39:15;6.80;1.00
9393;DHT22;4736;52.508;13.422;2023-01-10T06:42:20;6.80;1.00
9393;DHT22;4736;52.508;13.422;2023-01-10T06:45:23;6.90;1.00
9393;DHT22;4736;52.508;13.422;2023-01-10T06:48:26;7.00;1.00
9393;DHT22;4736;52.508;13.422;2023-01-10T06:51:29;7.10;1.00
9393;DHT22;4736;52.508;13.422;2023-01-10T06:54:32;7.00;1.00
9393;DHT22;4736;52.508;13.422;2023-01-10T06:57:36;7.00;1.00
9393;DHT22;4736;52.508;13.422;2023-01-10T07:00:40;7.00;1.00
9393;DHT22;4736;52.508;13.422;2023-01-10T07:03:44;6.80;1.00
9393;DHT22;4736;52.508;13.422;2023-01-10T07:06:48;7.00;1.00
9393;DHT22;4736;52.508;13.422;2023-01-10T07:09:51;7.00;1.00
9393;DHT22;4736;52.508;13.422;2023-01-10T07:12:56;6.80;1.00
9393;DHT22;4736;52.508;13.422;2023-01-10T07:16:03;7.00;1.00
9393;DHT22;4736;52.508;13.422;2023-01-10T07:19:07;6.90;1.00
9393;DHT22;4736;52.508;13.422;2023-01-10T07:22:10;7.20;1.00
9393;DHT22;4736;52.508;13.422;2023-01-10T07:25:13;6.90;1.00
9393;DHT22;4736;52.508;13.422;2023-01-10T07:28:18;7.00;1.00
9393;DHT22;4736;52.508;13.422;2023-01-10T07:31:21;6.90;1.00
9393;DHT22;4736;52.508;13.422;2023-01-10T07:34:25;6.80;1.00
9393;DHT22;4736;52.508;13.422;2023-01-10T07:37:28;6.90;1.00
9393;DHT22;4736;52.508;13.422;2023-01-10T07:40:31;7.00;1.00
9393;DHT22;4736;52.508;13.422;2023-01-10T07:43:37;7.00;1.00
9393;DHT22;4736;52.508;13.422;2023-01-10T07:46:42;6.80;1.00
9393;DHT22;4736;52.508;13.422;2023-01-10T07:49:45;7.10;1.00
9393;DHT22;4736;52.508;13.422;2023-01-10T07:52:48;7.10;1.00
9393;DHT22;4736;52.508;13.422;2023-01-10T07:55:51;6.90;1.00
9393;DHT22;4736;52.508;13.422;2023-01-10T07:58:55;6.80;1.00
9393;DHT22;4736;52.508;13.422;2023-01-10T08:01:58;7.20;1.00
9393;DHT22;4736;52.508;13.422;2023-01-10T08:05:02;6.90;1.00
9393;DHT22;4736;52.508;13.422;2023-01-10T08:08:05;6.80;1.00
9393;DHT22;4736;52.508;13.422;2023-01-10T08:11:09;6.90;1.00
9393;DHT22;4736;52.508;13.422;2023-01-10T08:14:13;6.90;1.00
9393;DHT22;4736;52.508;13.422;2023-01-10T08:17:16;6.90;1.00
9393;DHT22;4736;52.508;13.422;2023-01-10T08:20:20;7.10;1.00
9393;DHT22;4736;52.508;13.422;2023-01-10T08:23:23;7.20;1.00
9393;DHT22;4736;52.508;13.422;2023-01-10T08:26:26;7.20;1.00
9393;DHT22;4736;52.508;13.422;2023-01-10T08:29:31;7.00;1.00
9393;DHT22;4736;52.508;13.422;2023-01-10T08:32:34;7.30;1.00
9393;DHT22;4736;52.508;13.422;2023-01-10T08:35:37;7.00;1.00
9393;DHT22;4736;52.508;13.422;2023-01-10T08:38:40;7.10;1.00
9393;DHT22;4736;52.508;13.422;2023-01-10T08:41:43;7.10;1.00
9393;DHT22;4736;52.508;13.422;2023-01-10T08:44:48;7.10;1.00
9393;DHT22;4736;52.508;13.422;2023-01-10T08:47:52;7.00;1.00
9393;DHT22;4736;52.508;13.422;2023-01-10T08:50:56;7.10;1.00
9393;DHT22;4736;52.508;13.422;2023-01-10T08:54:00;7.00;1.00
9393;DHT22;4736;52.508;13.422;2023-01-10T08:57:03;7.30;1.00
9393;DHT22;4736;52.508;13.422;2023-01-10T09:00:09;7.10;1.00
9393;DHT22;4736;52.508;13.422;2023-01-10T09:03:19;7.10;1.00
9393;DHT22;4736;52.508;13.422;2023-01-10T09:06:22;7.20;1.00
9393;DHT22;4736;52.508;13.422;2023-01-10T09:09:26;7.20;1.00
9393;DHT22;4736;52.508;13.422;2023-01-10T09:12:29;7.30;1.00
9393;DHT22;4736;52.508;13.422;2023-01-10T09:15:51;7.40;1.00
9393;DHT22;4736;52.508;13.422;2023-01-10T09:18:54;7.60;1.00
9393;DHT22;4736;52.508;13.422;2023-01-10T09:21:57;7.60;1.00
9393;DHT22;4736;52.508;13.422;2023-01-10T09:25:04;7.60;1.00
9393;DHT22;4736;52.508;13.422;2023-01-10T09:28:08;7.50;1.00
9393;DHT22;4736;52.508;13.422;2023-01-10T09:31:13;7.70;1.00
9393;DHT22;4736;52.508;13.422;2023-01-10T09:34:16;7.80;1.00
9393;DHT22;4736;52.508;13.422;2023-01-10T09:37:19;7.90;1.00
9393;DHT22;4736;52.508;13.422;2023-01-10T09:40:38;7.90;1.00
9393;DHT22;4736;52.508;13.422;2023-01-10T09:43:53;7.90;1.00
9393;DHT22;4736;52.508;13.422;2023-01-10T09:47:08;7.90;1.00
9393;DHT22;4736;52.508;13.422;2023-01-10T09:50:29;8.00;1.00
9393;DHT22;4736;52.508;13.422;2023-01-10T09:53:36;8.10;1.00
9393;DHT22;4736;52.508;13.422;2023-01-10T09:56:42;8.10;1.00
9393;DHT22;4736;52.508;13.422;2023-01-10T09:59:47;8.10;1.00
9393;DHT22;4736;52.508;13.422;2023-01-10T10:02:56;7.90;1.00
9393;DHT22;4736;52.508;13.422;2023-01-10T10:05:59;7.90;1.00
9393;DHT22;4736;52.508;13.422;2023-01-10T10:09:14;7.90;1.00
9393;DHT22;4736;52.508;13.422;2023-01-10T10:12:26;7.90;1.00
9393;DHT22;4736;52.508;13.422;2023-01-10T10:15:36;8.10;1.00
9393;DHT22;4736;52.508;13.422;2023-01-10T10:18:51;8.20;1.00
9393;DHT22;4736;52.508;13.422;2023-01-10T10:22:03;8.30;1.00
9393;DHT22;4736;52.508;13.422;2023-01-10T10:25:21;8.20;1.00
9393;DHT22;4736;52.508;13.422;2023-01-10T10:28:57;8.00;1.00
9393;DHT22;4736;52.508;13.422;2023-01-10T10:35:44;8.10;1.00
9393;DHT22;4736;52.508;13.422;2023-01-10T10:38:54;8.10;1.00
9393;DHT22;4736;52.508;13.422;2023-01-10T10:41:59;8.10;1.00
9393;DHT22;4736;52.508;13.422;2023-01-10T10:45:09;8.00;1.00
9393;DHT22;4736;52.508;13.422;2023-01-10T10:48:24;7.90;1.00
9393;DHT22;4736;52.508;13.422;2023-01-10T10:51:38;7.90;1.00
9393;DHT22;4736;52.508;13.422;2023-01-10T10:54:42;7.90;1.00
9393;DHT22;4736;52.508;13.422;2023-01-10T10:57:48;7.90;1.00
9393;DHT22;4736;52.508;13.422;2023-01-10T11:01:01;7.90;1.00
9393;DHT22;4736;52.508;13.422;2023-01-10T11:04:12;7.80;1.00
9393;DHT22;4736;52.508;13.422;2023-01-10T11:07:19;7.70;1.00
9393;DHT22;4736;52.508;13.422;2023-01-10T11:10:23;7.70;1.00
9393;DHT22;4736;52.508;13.422;2023-01-10T11:13:45;7.90;1.00
9393;DHT22;4736;52.508;13.422;2023-01-10T11:16:48;7.50;1.00
9393;DHT22;4736;52.508;13.422;2023-01-10T11:19:56;7.70;1.00
9393;DHT22;4736;52.508;13.422;2023-01-10T11:23:02;7.80;1.00
9393;DHT22;4736;52.508;13.422;2023-01-10T11:26:07;7.70;1.00
9393;DHT22;4736;52.508;13.422;2023-01-10T11:29:14;7.80;1.00
9393;DHT22;4736;52.508;13.422;2023-01-10T11:32:21;7.80;1.00
9393;DHT22;4736;52.508;13.422;2023-01-10T11:35:26;7.80;1.00
9393;DHT22;4736;52.508;13.422;2023-01-10T11:38:32;7.80;1.00
9393;DHT22;4736;52.508;13.422;2023-01-10T11:41:36;7.90;1.00
9393;DHT22;4736;52.508;13.422;2023-01-10T11:44:39;8.00;1.00
9393;DHT22;4736;52.508;13.422;2023-01-10T11:47:45;8.00;1.00
9393;DHT22;4736;52.508;13.422;2023-01-10T11:50:52;8.20;1.00
9393;DHT22;4736;52.508;13.422;2023-01-10T11:53:59;8.20;1.00
9393;DHT22;4736;52.508;13.422;2023-01-10T11:57:13;8.60;1.00
9393;DHT22;4736;52.508;13.422;2023-01-10T12:00:17;8.40;1.00
9393;DHT22;4736;52.508;13.422;2023-01-10T12:03:24;8.50;1.00
9393;DHT22;4736;52.508;13.422;2023-01-10T12:06:29;8.50;1.00
9393;DHT22;4736;52.508;13.422;2023-01-10T12:09:36;8.60;1.00
9393;DHT22;4736;52.508;13.422;2023-01-10T12:12:52;8.60;1.00
9393;DHT22;4736;52.508;13.422;2023-01-10T12:16:20;8.40;1.00
9393;DHT22;4736;52.508;13.422;2023-01-10T12:19:23;8.40;1.00
9393;DHT22;4736;52.508;13.422;2023-01-10T12:22:30;8.50;1.00
9393;DHT22;4736;52.508;13.422;2023-01-10T12:25:37;8.70;1.00
9393;DHT22;4736;52.508;13.422;2023-01-10T12:28:45;8.70;1.00
9393;DHT22;4736;52.508;13.422;2023-01-10T12:31:53;8.70;1.00
9393;DHT22;4736;52.508;13.422;2023-01-10T12:35:00;8.70;1.00
9393;DHT22;4736;52.508;13.422;2023-01-10T12:38:17;8.80;1.00
9393;DHT22;4736;52.508;13.422;2023-01-10T12:41:27;8.90;1.00
9393;DHT22;4736;52.508;13.422;2023-01-10T12:44:53;8.90;1.00
9393;DHT22;4736;52.508;13.422;2023-01-10T12:48:05;8.90;1.00
9393;DHT22;4736;52.508;13.422;2023-01-10T12:51:16;8.90;1.00
9393;DHT22;4736;52.508;13.422;2023-01-10T12:54:26;8.90;1.00
9393;DHT22;4736;52.508;13.422;2023-01-10T12:57:36;8.90;1.00
9393;DHT22;4736;52.508;13.422;2023-01-10T13:00:42;8.80;1.00
9393;DHT22;4736;52.508;13.422;2023-01-10T13:03:53;8.80;1.00
9393;DHT22;4736;52.508;13.422;2023-01-10T13:06:59;8.90;1.00
9393;DHT22;4736;52.508;13.422;2023-01-10T13:10:14;8.90;1.00
9393;DHT22;4736;52.508;13.422;2023-01-10T13:13:28;8.80;1.00
9393;DHT22;4736;52.508;13.422;2023-01-10T13:16:43;8.80;1.00
9393;DHT22;4736;52.508;13.422;2023-01-10T13:23:27;8.70;1.00
9393;DHT22;4736;52.508;13.422;2023-01-10T13:26:47;8.60;1.00
9393;DHT22;4736;52.508;13.422;2023-01-10T13:29:53;8.60;1.00
9393;DHT22;4736;52.508;13.422;2023-01-10T13:33:00;8.50;1.00
9393;DHT22;4736;52.508;13.422;2023-01-10T13:36:16;8.50;1.00
9393;DHT22;4736;52.508;13.422;2023-01-10T13:39:25;8.50;1.00
9393;DHT22;4736;52.508;13.422;2023-01-10T13:42:30;8.50;1.00
9393;DHT22;4736;52.508;13.422;2023-01-10T13:49:44;8.40;1.00
9393;DHT22;4736;52.508;13.422;2023-01-10T13:52:48;8.40;1.00
9393;DHT22;4736;52.508;13.422;2023-01-10T13:55:55;8.30;1.00
9393;DHT22;4736;52.508;13.422;2023-01-10T13:58:59;8.30;1.00
9393;DHT22;4736;52.508;13.422;2023-01-10T14:02:22;8.20;1.00
9393;DHT22;4736;52.508;13.422;2023-01-10T14:05:33;8.20;1.00
9393;DHT22;4736;52.508;13.422;2023-01-10T14:08:37;8.30;1.00
9393;DHT22;4736;52.508;13.422;2023-01-10T14:11:51;8.20;1.00
9393;DHT22;4736;52.508;13.422;2023-01-10T14:14:57;8.20;1.00
9393;DHT22;4736;52.508;13.422;2023-01-10T14:18:03;8.20;1.00
9393;DHT22;4736;52.508;13.422;2023-01-10T14:21:09;8.10;1.00
9393;DHT22;4736;52.508;13.422;2023-01-10T14:24:28;8.30;1.00
9393;DHT22;4736;52.508;13.422;2023-01-10T14:27:42;8.10;1.00
9393;DHT22;4736;52.508;13.422;2023-01-10T14:30:55;8.00;1.00
9393;DHT22;4736;52.508;13.422;2023-01-10T14:34:01;7.90;1.00
9393;DHT22;4736;52.508;13.422;2023-01-10T14:37:15;7.80;1.00
9393;DHT22;4736;52.508;13.422;2023-01-10T14:40:27;7.70;1.00
9393;DHT22;4736;52.508;13.422;2023-01-10T14:43:38;7.90;1.00
9393;DHT22;4736;52.508;13.422;2023-01-10T14:46:46;7.70;1.00
9393;DHT22;4736;52.508;13.422;2023-01-10T14:49:49;7.70;1.00
9393;DHT22;4736;52.508;13.422;2023-01-10T14:52:54;7.60;1.00
9393;DHT22;4736;52.508;13.422;2023-01-10T14:55:57;7.60;1.00
9393;DHT22;4736;52.508;13.422;2023-01-10T14:59:15;7.60;1.00
9393;DHT22;4736;52.508;13.422;2023-01-10T15:02:20;7.60;1.00
9393;DHT22;4736;52.508;13.422;2023-01-10T15:05:29;7.60;1.00
9393;DHT22;4736;52.508;13.422;2023-01-10T15:08:34;7.70;1.00
9393;DHT22;4736;52.508;13.422;2023-01-10T15:11:38;7.60;1.00
9393;DHT22;4736;52.508;13.422;2023-01-10T15:14:41;7.70;1.00
9393;DHT22;4736;52.508;13.422;2023-01-10T15:17:44;7.60;1.00
9393;DHT22;4736;52.508;13.422;2023-01-10T15:20:48;7.80;1.00
9393;DHT22;4736;52.508;13.422;2023-01-10T15:23:52;7.40;1.00
9393;DHT22;4736;52.508;13.422;2023-01-10T15:26:57;7.60;1.00
9393;DHT22;4736;52.508;13.422;2023-01-10T15:30:03;7.60;1.00
9393;DHT22;4736;52.508;13.422;2023-01-10T15:33:12;7.50;1.00
9393;DHT22;4736;52.508;13.422;2023-01-10T15:36:17;7.40;1.00
9393;DHT22;4736;52.508;13.422;2023-01-10T15:39:24;7.40;1.00
9393;DHT22;4736;52.508;13.422;2023-01-10T15:42:29;7.30;1.00
9393;DHT22;4736;52.508;13.422;2023-01-10T15:45:33;7.50;1.00
9393;DHT22;4736;52.508;13.422;2023-01-10T15:48:40;7.50;1.00
9393;DHT22;4736;52.508;13.422;2023-01-10T15:51:46;7.40;1.00
9393;DHT22;4736;52.508;13.422;2023-01-10T15:54:51;7.40;1.00
9393;DHT22;4736;52.508;13.422;2023-01-10T15:57:57;7.30;1.00
9393;DHT22;4736;52.508;13.422;2023-01-10T16:01:02;7.50;1.00
9393;DHT22;4736;52.508;13.422;2023-01-10T16:04:12;7.50;1.00
9393;DHT22;4736;52.508;13.422;2023-01-10T16:07:18;7.50;1.00
9393;DHT22;4736;52.508;13.422;2023-01-10T16:10:25;7.40;1.00
9393;DHT22;4736;52.508;13.422;2023-01-10T16:13:29;7.40;1.00
9393;DHT22;4736;52.508;13.422;2023-01-10T16:16:34;7.50;1.00
9393;DHT22;4736;52.508;13.422;2023-01-10T16:19:38;7.50;1.00
9393;DHT22;4736;52.508;13.422;2023-01-10T16:22:41;7.80;1.00
9393;DHT22;4736;52.508;13.422;2023-01-10T16:25:48;7.40;1.00
9393;DHT22;4736;52.508;13.422;2023-01-10T16:28:51;7.40;1.00
9393;DHT22;4736;52.508;13.422;2023-01-10T16:31:54;7.40;1.00
9393;DHT22;4736;52.508;13.422;2023-01-10T16:34:58;7.40;1.00
9393;DHT22;4736;52.508;13.422;2023-01-10T16:38:03;7.30;1.00
9393;DHT22;4736;52.508;13.422;2023-01-10T16:41:11;7.30;1.00
9393;DHT22;4736;52.508;13.422;2023-01-10T16:44:33;7.50;1.00
9393;DHT22;4736;52.508;13.422;2023-01-10T16:47:36;7.20;1.00
9393;DHT22;4736;52.508;13.422;2023-01-10T16:50:39;7.30;1.00
9393;DHT22;4736;52.508;13.422;2023-01-10T16:53:42;7.40;1.00
9393;DHT22;4736;52.508;13.422;2023-01-10T16:56:48;7.30;1.00
9393;DHT22;4736;52.508;13.422;2023-01-10T16:59:52;7.30;1.00
9393;DHT22;4736;52.508;13.422;2023-01-10T17:02:56;7.30;1.00
9393;DHT22;4736;52.508;13.422;2023-01-10T17:06:06;7.60;1.00
9393;DHT22;4736;52.508;13.422;2023-01-10T17:09:25;7.30;1.00
9393;DHT22;4736;52.508;13.422;2023-01-10T17:12:33;7.20;1.00
9393;DHT22;4736;52.508;13.422;2023-01-10T17:15:43;7.10;1.00
9393;DHT22;4736;52.508;13.422;2023-01-10T17:18:46;7.10;1.00
9393;DHT22;4736;52.508;13.422;2023-01-10T17:21:49;7.20;1.00
9393;DHT22;4736;52.508;13.422;2023-01-10T17:24:52;7.30;1.00
9393;DHT22;4736;52.508;13.422;2023-01-10T17:27:56;6.90;1.00
9393;DHT22;4736;52.508;13.422;2023-01-10T17:30:59;7.20;1.00
9393;DHT22;4736;52.508;13.422;2023-01-10T17:34:03;7.00;1.00
9393;DHT22;4736;52.508;13.422;2023-01-10T17:37:06;7.10;1.00
9393;DHT22;4736;52.508;13.422;2023-01-10T17:40:10;7.10;1.00
9393;DHT22;4736;52.508;13.422;2023-01-10T17:43:16;7.10;1.00
9393;DHT22;4736;52.508;13.422;2023-01-10T17:46:19;7.10;1.00
9393;DHT22;4736;52.508;13.422;2023-01-10T17:49:23;7.10;1.00
9393;DHT22;4736;52.508;13.422;2023-01-10T17:52:26;6.70;1.00
9393;DHT22;4736;52.508;13.422;2023-01-10T17:55:30;7.00;1.00
9393;DHT22;4736;52.508;13.422;2023-01-10T17:58:35;6.80;1.00
9393;DHT22;4736;52.508;13.422;2023-01-10T18:01:44;6.70;1.00
9393;DHT22;4736;52.508;13.422;2023-01-10T18:04:47;6.90;1.00
9393;DHT22;4736;52.508;13.422;2023-01-10T18:07:50;6.60;1.00
9393;DHT22;4736;52.508;13.422;2023-01-10T18:10:58;6.80;1.00
9393;DHT22;4736;52.508;13.422;2023-01-10T18:14:03;6.90;1.00
9393;DHT22;4736;52.508;13.422;2023-01-10T18:17:20;6.60;1.00
9393;DHT22;4736;52.508;13.422;2023-01-10T18:20:23;6.40;1.00
9393;DHT22;4736;52.508;13.422;2023-01-10T18:23:28;6.50;1.00
9393;DHT22;4736;52.508;13.422;2023-01-10T18:26:32;6.70;1.00
9393;DHT22;4736;52.508;13.422;2023-01-10T18:29:37;6.30;1.00
9393;DHT22;4736;52.508;13.422;2023-01-10T18:32:40;6.80;1.00
9393;DHT22;4736;52.508;13.422;2023-01-10T18:35:43;6.40;1.00
9393;DHT22;4736;52.508;13.422;2023-01-10T18:38:48;6.30;1.00
9393;DHT22;4736;52.508;13.422;2023-01-10T18:41:52;6.50;1.00
9393;DHT22;4736;52.508;13.422;2023-01-10T18:44:56;6.50;1.00
9393;DHT22;4736;52.508;13.422;2023-01-10T18:47:59;6.70;1.00
9393;DHT22;4736;52.508;13.422;2023-01-10T18:51:03;6.50;1.00
9393;DHT22;4736;52.508;13.422;2023-01-10T18:54:07;6.40;1.00
9393;DHT22;4736;52.508;13.422;2023-01-10T18:57:10;6.40;1.00
9393;DHT22;4736;52.508;13.422;2023-01-10T19:00:15;6.20;1.00
9393;DHT22;4736;52.508;13.422;2023-01-10T19:03:18;6.20;1.00
9393;DHT22;4736;52.508;13.422;2023-01-10T19:06:23;6.20;1.00
9393;DHT22;4736;52.508;13.422;2023-01-10T19:09:26;6.30;1.00
9393;DHT22;4736;52.508;13.422;2023-01-10T19:12:29;5.90;1.00
9393;DHT22;4736;52.508;13.422;2023-01-10T19:15:35;6.10;1.00
9393;DHT22;4736;52.508;13.422;2023-01-10T19:18:48;6.00;1.00
9393;DHT22;4736;52.508;13.422;2023-01-10T19:21:51;6.00;1.00
9393;DHT22;4736;52.508;13.422;2023-01-10T19:24:54;5.70;1.00
9393;DHT22;4736;52.508;13.422;2023-01-10T19:27:57;5.80;1.00
9393;DHT22;4736;52.508;13.422;2023-01-10T19:31:02;5.80;1.00
9393;DHT22;4736;52.508;13.422;2023-01-10T19:34:12;5.80;1.00
9393;DHT22;4736;52.508;13.422;2023-01-10T19:37:15;5.80;1.00
9393;DHT22;4736;52.508;13.422;2023-01-10T19:40:18;5.70;1.00
9393;DHT22;4736;52.508;13.422;2023-01-10T19:43:22;5.70;1.00
9393;DHT22;4736;52.508;13.422;2023-01-10T19:46:27;5.80;1.00
9393;DHT22;4736;52.508;13.422;2023-01-10T19:49:32;5.80;1.00
9393;DHT22;4736;52.508;13.422;2023-01-10T19:52:37;5.50;1.00
9393;DHT22;4736;52.508;13.422;2023-01-10T19:55:44;5.70;1.00
9393;DHT22;4736;52.508;13.422;2023-01-10T19:58:48;5.50;1.00
9393;DHT22;4736;52.508;13.422;2023-01-10T20:01:56;5.90;1.00
9393;DHT22;4736;52.508;13.422;2023-01-10T20:04:59;5.50;1.00
9393;DHT22;4736;52.508;13.422;2023-01-10T20:08:03;5.60;1.00
9393;DHT22;4736;52.508;13.422;2023-01-10T20:11:06;5.40;1.00
9393;DHT22;4736;52.508;13.422;2023-01-10T20:14:12;5.30;1.00
9393;DHT22;4736;52.508;13.422;2023-01-10T20:17:17;5.40;1.00
9393;DHT22;4736;52.508;13.422;2023-01-10T20:20:20;5.40;1.00
9393;DHT22;4736;52.508;13.422;2023-01-10T20:23:24;5.50;1.00
9393;DHT22;4736;52.508;13.422;2023-01-10T20:26:27;5.50;1.00
9393;DHT22;4736;52.508;13.422;2023-01-10T20:29:31;5.30;1.00
9393;DHT22;4736;52.508;13.422;2023-01-10T20:32:36;5.30;1.00
9393;DHT22;4736;52.508;13.422;2023-01-10T20:35:39;5.20;1.00
9393;DHT22;4736;52.508;13.422;2023-01-10T20:38:43;5.60;1.00
9393;DHT22;4736;52.508;13.422;2023-01-10T20:41:47;5.20;1.00
9393;DHT22;4736;52.508;13.422;2023-01-10T20:44:50;5.10;1.00
9393;DHT22;4736;52.508;13.422;2023-01-10T20:47:54;5.20;1.00
9393;DHT22;4736;52.508;13.422;2023-01-10T20:50:57;5.00;1.00
9393;DHT22;4736;52.508;13.422;2023-01-10T20:54:01;5.30;1.00